createdAt,value
2023-01-21T00:01:01.561Z,96.94
2023-01-21T00:03:29.069Z,96.23
2023-01-21T00:05:58.256Z,96.03
2023-01-21T00:08:26.553Z,96.68
2023-01-21T00:10:56.839Z,96.33
2023-01-21T00:13:24.033Z,96.19
2023-01-21T00:15:54.222Z,96.70
2023-01-21T00:18:21.765Z,97.11
2023-01-21T00:20:48.897Z,95.79
2023-01-21T00:23:16.009Z,96.32
2023-01-21T00:25:43.445Z,96.54
2023-01-21T00:28:10.534Z,95.81
2023-01-21T00:30:38.054Z,95.05
2023-01-21T00:33:05.716Z,95.03
2023-01-21T00:35:32.945Z,95.81
2023-01-21T00:38:00.119Z,94.40
2023-01-21T00:40:27.527Z,95.85
2023-01-21T00:42:54.729Z,96.19
2023-01-21T00:45:21.901Z,96.12
2023-01-21T00:47:49.361Z,96.63
2023-01-21T00:50:17.348Z,96.09
2023-01-21T00:52:44.730Z,96.22
2023-01-21T00:55:12.131Z,95.45
2023-01-21T00:57:39.590Z,94.46
2023-01-21T01:00:11.034Z,94.71
2023-01-21T01:02:38.814Z,95.78
2023-01-21T01:05:08.317Z,97.51
2023-01-21T01:07:35.558Z,97.22
2023-01-21T01:10:03.036Z,97.68
2023-01-21T01:12:30.112Z,97.29
2023-01-21T01:14:58.445Z,97.76
2023-01-21T01:17:26.938Z,97.13
2023-01-21T01:19:54.135Z,96.70
2023-01-21T01:22:21.544Z,97.21
2023-01-21T01:24:48.952Z,97.08
2023-01-21T01:27:16.065Z,97.53
2023-01-21T01:29:43.137Z,98.27
2023-01-21T01:32:11.241Z,97.63
2023-01-21T01:34:39.295Z,97.87
2023-01-21T01:37:07.303Z,97.66
2023-01-21T01:39:35.768Z,98.26
2023-01-21T01:42:03.610Z,97.76
2023-01-21T01:44:49.142Z,98.34
2023-01-21T01:47:16.701Z,99.04
2023-01-21T01:49:44.081Z,98.46
2023-01-21T01:52:11.954Z,98.99
2023-01-21T01:54:43.479Z,99.08
2023-01-21T01:57:12.674Z,98.73
2023-01-21T01:59:40.967Z,98.13
2023-01-21T02:02:10.267Z,97.74
2023-01-21T02:05:10.922Z,97.82
2023-01-21T02:07:42.875Z,98.18
2023-01-21T02:10:12.052Z,98.45
2023-01-21T02:12:41.910Z,97.79
2023-01-21T02:15:09.563Z,97.51
2023-01-21T02:17:52.660Z,97.18
2023-01-21T02:20:44.542Z,97.96
2023-01-21T02:23:27.791Z,98.15
2023-01-21T02:25:59.376Z,98.77
2023-01-21T02:28:54.658Z,98.72
2023-01-21T02:31:33.381Z,98.11
2023-01-21T02:34:06.178Z,97.91
2023-01-21T02:36:43.436Z,97.71
2023-01-21T02:39:32.021Z,99.04
2023-01-21T02:42:30.344Z,100.00
2023-01-21T02:45:26.165Z,99.30
2023-01-21T02:48:05.851Z,98.83
2023-01-21T02:50:45.039Z,99.88
2023-01-21T02:53:25.712Z,99.90
2023-01-21T02:55:53.628Z,100.00
2023-01-21T02:58:26.059Z,100.00
2023-01-21T03:01:05.554Z,100.00
2023-01-21T03:04:10.898Z,100.00
2023-01-21T03:06:56.862Z,100.00
2023-01-21T03:09:42.555Z,100.00
2023-01-21T03:12:28.062Z,100.00
2023-01-21T03:15:43.810Z,100.00
2023-01-21T03:18:38.734Z,100.00
2023-01-21T03:21:08.865Z,100.00
2023-01-21T03:23:42.472Z,100.00
2023-01-21T03:26:11.488Z,100.00
2023-01-21T03:28:44.157Z,100.00
2023-01-21T03:31:43.757Z,100.00
2023-01-21T03:34:13.087Z,100.00
2023-01-21T03:37:21.848Z,100.00
2023-01-21T03:39:57.603Z,99.93
2023-01-21T03:42:25.173Z,99.46
2023-01-21T03:44:52.403Z,98.78
2023-01-21T03:47:38.070Z,98.21
2023-01-21T03:50:07.416Z,98.04
2023-01-21T03:52:34.660Z,97.32
2023-01-21T03:55:01.749Z,96.86
2023-01-21T03:57:29.187Z,96.71
2023-01-21T03:59:56.551Z,96.87
2023-01-21T04:02:23.748Z,96.85
2023-01-21T04:04:53.136Z,96.55
2023-01-21T04:07:20.298Z,96.32
2023-01-21T04:09:47.436Z,96.97
2023-01-21T04:12:14.817Z,96.57
2023-01-21T04:14:41.969Z,96.09
2023-01-21T04:17:09.405Z,96.19
2023-01-21T04:19:36.805Z,96.20
2023-01-21T04:22:03.920Z,96.17
2023-01-21T04:24:33.098Z,96.13
2023-01-21T04:27:01.843Z,96.22
2023-01-21T04:29:28.940Z,96.13
2023-01-21T04:31:56.048Z,96.17
2023-01-21T04:34:23.462Z,96.33
2023-01-21T04:36:53.325Z,96.34
2023-01-21T04:39:20.417Z,96.57
2023-01-21T04:41:48.371Z,95.93
2023-01-21T04:44:15.475Z,95.32
2023-01-21T04:46:42.542Z,95.81
2023-01-21T04:49:10.013Z,95.44
2023-01-21T04:51:37.113Z,95.83
2023-01-21T04:54:04.340Z,95.74
2023-01-21T04:56:31.789Z,96.36
2023-01-21T04:58:58.849Z,95.81
2023-01-21T05:01:25.977Z,96.17
2023-01-21T05:03:53.354Z,96.23
2023-01-21T05:06:20.435Z,96.13
2023-01-21T05:08:47.641Z,97.50
2023-01-21T05:11:17.758Z,98.23
2023-01-21T05:13:44.899Z,98.27
2023-01-21T05:16:11.992Z,98.29
2023-01-21T05:18:40.721Z,98.55
2023-01-21T05:21:08.320Z,98.37
2023-01-21T05:23:35.419Z,97.98
2023-01-21T05:26:03.228Z,97.78
2023-01-21T05:28:30.367Z,97.18
2023-01-21T05:31:02.194Z,96.59
2023-01-21T05:33:33.967Z,96.33
2023-01-21T05:36:01.753Z,96.75
2023-01-21T05:38:29.064Z,96.87
2023-01-21T05:41:02.132Z,97.27
2023-01-21T05:43:29.809Z,97.41
2023-01-21T05:45:57.321Z,96.97
2023-01-21T05:48:24.813Z,96.22
2023-01-21T05:50:52.053Z,96.17
2023-01-21T05:53:19.700Z,95.10
2023-01-21T05:55:47.068Z,95.58
2023-01-21T05:58:14.281Z,95.99
2023-01-21T06:00:42.079Z,96.66
2023-01-21T06:03:09.737Z,96.60
2023-01-21T06:05:36.880Z,94.19
2023-01-21T06:08:04.169Z,96.64
2023-01-21T06:10:31.604Z,95.56
2023-01-21T06:12:58.675Z,94.37
2023-01-21T06:15:26.055Z,94.85
2023-01-21T06:17:53.879Z,95.05
2023-01-21T06:20:21.144Z,95.85
2023-01-21T06:22:49.063Z,95.49
2023-01-21T06:25:16.504Z,96.26
2023-01-21T06:27:43.581Z,96.05
2023-01-21T06:30:11.226Z,95.27
2023-01-21T06:32:38.620Z,94.84
2023-01-21T06:35:06.151Z,94.77
2023-01-21T06:37:33.380Z,93.31
2023-01-21T06:40:00.806Z,93.61
2023-01-21T06:42:27.911Z,93.87
2023-01-21T06:44:54.985Z,93.25
2023-01-21T06:47:22.357Z,93.49
2023-01-21T06:49:49.476Z,94.65
2023-01-21T06:52:17.010Z,94.78
2023-01-21T06:54:44.566Z,95.56
2023-01-21T06:57:12.141Z,95.75
2023-01-21T06:59:39.256Z,95.84
2023-01-21T07:02:07.104Z,95.07
2023-01-21T07:04:34.211Z,94.66
2023-01-21T07:07:01.312Z,95.09
2023-01-21T07:09:28.684Z,94.29
2023-01-21T07:11:55.767Z,93.73
2023-01-21T07:14:22.858Z,94.36
2023-01-21T07:16:50.311Z,94.75
2023-01-21T07:19:17.373Z,93.81
2023-01-21T07:21:44.574Z,94.67
2023-01-21T07:24:12.007Z,93.09
2023-01-21T07:26:39.142Z,93.93
2023-01-21T07:29:09.431Z,93.98
2023-01-21T07:31:37.171Z,93.37
2023-01-21T07:34:04.395Z,94.72
2023-01-21T07:36:31.756Z,95.16
2023-01-21T07:38:59.422Z,93.45
2023-01-21T07:41:26.528Z,92.94
2023-01-21T07:43:53.637Z,93.33
2023-01-21T07:46:22.005Z,93.52
2023-01-21T07:48:51.129Z,93.49
2023-01-21T07:51:19.528Z,93.39
2023-01-21T07:53:46.981Z,94.45
2023-01-21T07:56:14.930Z,93.95
2023-01-21T07:58:42.050Z,94.28
2023-01-21T08:01:10.088Z,94.69
2023-01-21T08:03:37.894Z,93.71
2023-01-21T08:06:06.179Z,93.95
2023-01-21T08:08:33.656Z,94.36
2023-01-21T08:11:01.132Z,94.63
2023-01-21T08:13:28.417Z,94.54
2023-01-21T08:15:56.653Z,95.29
2023-01-21T08:18:24.751Z,94.67
2023-01-21T08:20:56.299Z,95.44
2023-01-21T08:23:24.397Z,95.81
2023-01-21T08:25:51.586Z,96.04
2023-01-21T08:28:18.858Z,94.77
2023-01-21T08:30:46.287Z,95.34
2023-01-21T08:33:13.499Z,95.50
2023-01-21T08:35:40.673Z,95.47
2023-01-21T08:38:08.181Z,94.00
2023-01-21T08:40:35.311Z,94.37
2023-01-21T08:43:03.862Z,94.76
2023-01-21T08:45:31.278Z,95.36
2023-01-21T08:47:58.456Z,95.42
2023-01-21T08:50:25.559Z,95.24
2023-01-21T08:52:53.661Z,94.76
2023-01-21T08:55:21.529Z,94.92
2023-01-21T08:57:52.063Z,94.47
2023-01-21T09:00:20.828Z,93.33
2023-01-21T09:02:50.000Z,94.34
2023-01-21T09:05:18.978Z,95.40
2023-01-21T09:07:46.688Z,96.32
2023-01-21T09:10:34.384Z,95.75
2023-01-21T09:13:06.190Z,95.79
2023-01-21T09:15:40.810Z,96.70
2023-01-21T09:18:08.636Z,95.54
2023-01-21T09:20:36.293Z,95.33
2023-01-21T09:23:24.265Z,95.07
2023-01-21T09:26:01.211Z,96.20
2023-01-21T09:28:28.550Z,95.21
2023-01-21T09:31:00.413Z,95.72
2023-01-21T09:33:29.195Z,96.14
2023-01-21T09:35:58.225Z,96.03
2023-01-21T09:38:26.376Z,94.96
2023-01-21T09:40:53.866Z,94.63
2023-01-21T09:43:27.975Z,95.93
2023-01-21T09:45:58.554Z,95.58
2023-01-21T09:48:33.517Z,95.69
2023-01-21T09:51:04.971Z,96.13
2023-01-21T09:53:53.158Z,96.59
2023-01-21T09:56:28.538Z,96.61
2023-01-21T09:59:13.085Z,95.50
2023-01-21T10:01:41.094Z,96.08
2023-01-21T10:04:27.110Z,96.40
2023-01-21T10:07:07.652Z,98.18
2023-01-21T10:09:44.077Z,98.05
2023-01-21T10:12:14.122Z,97.46
2023-01-21T10:14:41.499Z,97.13
2023-01-21T10:17:31.489Z,96.79
2023-01-21T10:20:22.200Z,96.87
2023-01-21T10:23:00.113Z,96.31
2023-01-21T10:25:34.658Z,95.35
2023-01-21T10:28:06.626Z,96.64
2023-01-21T10:30:37.962Z,96.84
2023-01-21T10:33:08.957Z,96.59
2023-01-21T10:35:48.271Z,96.87
2023-01-21T10:38:27.485Z,96.99
2023-01-21T10:41:02.214Z,97.03
2023-01-21T10:43:38.433Z,95.69
2023-01-21T10:46:26.106Z,96.61
2023-01-21T10:49:08.725Z,95.71
2023-01-21T10:51:45.482Z,97.03
2023-01-21T10:54:16.118Z,97.49
2023-01-21T10:56:43.421Z,96.63
2023-01-21T10:59:19.406Z,97.24
2023-01-21T11:02:03.638Z,96.36
2023-01-21T11:04:30.769Z,96.84
2023-01-21T11:07:03.545Z,97.84
2023-01-21T11:09:49.176Z,97.63
2023-01-21T11:12:20.002Z,97.17
2023-01-21T11:15:10.986Z,98.15
2023-01-21T11:17:41.256Z,99.40
2023-01-21T11:20:34.036Z,98.51
2023-01-21T11:23:06.034Z,98.24
2023-01-21T11:25:36.179Z,96.76
2023-01-21T11:28:04.981Z,96.11
2023-01-21T11:30:50.934Z,96.16
2023-01-21T11:33:25.742Z,96.37
2023-01-21T11:35:55.822Z,96.76
2023-01-21T11:38:26.162Z,96.40
2023-01-21T11:41:12.065Z,96.08
2023-01-21T11:43:54.583Z,96.82
2023-01-21T11:46:34.798Z,96.59
2023-01-21T11:49:08.466Z,96.44
2023-01-21T11:51:37.293Z,96.85
2023-01-21T11:54:18.379Z,96.09
2023-01-21T11:57:37.717Z,96.79
2023-01-21T12:00:08.833Z,96.31
2023-01-21T12:02:48.960Z,96.91
2023-01-21T12:05:27.146Z,97.10
2023-01-21T12:07:55.009Z,98.25
2023-01-21T12:10:43.475Z,98.42
2023-01-21T12:13:22.111Z,98.69
2023-01-21T12:15:59.268Z,99.46
2023-01-21T12:19:03.460Z,99.52
2023-01-21T12:21:52.852Z,97.87
2023-01-21T12:24:42.439Z,97.05
2023-01-21T12:27:19.158Z,98.23
2023-01-21T12:30:06.530Z,98.62
2023-01-21T12:32:40.251Z,97.95
2023-01-21T12:35:16.134Z,98.03
2023-01-21T12:37:56.829Z,97.20
2023-01-21T12:41:02.096Z,96.58
2023-01-21T12:43:42.498Z,97.23
2023-01-21T12:46:38.199Z,95.83
2023-01-21T12:49:49.423Z,96.63
2023-01-21T12:52:42.227Z,99.53
2023-01-21T12:55:22.364Z,99.39
2023-01-21T12:57:49.508Z,100.00
2023-01-21T13:00:20.461Z,100.00
2023-01-21T13:03:06.034Z,100.00
2023-01-21T13:05:47.832Z,100.00
2023-01-21T13:08:14.947Z,97.14
2023-01-21T13:10:45.641Z,97.97
2023-01-21T13:13:22.432Z,95.33
2023-01-21T13:15:53.067Z,97.30
2023-01-21T13:18:25.864Z,95.62
2023-01-21T13:20:55.953Z,94.49
2023-01-21T13:23:43.430Z,95.30
2023-01-21T13:26:30.265Z,93.58
2023-01-21T13:29:07.797Z,95.11
2023-01-21T13:31:53.800Z,96.67
2023-01-21T13:34:29.504Z,97.75
2023-01-21T13:37:05.070Z,98.43
2023-01-21T13:39:46.339Z,98.74
2023-01-21T13:42:38.597Z,98.67
2023-01-21T13:45:44.414Z,99.73
2023-01-21T13:48:33.039Z,100.00
2023-01-21T13:51:26.341Z,100.00
2023-01-21T13:54:12.531Z,100.00
2023-01-21T13:56:39.651Z,100.00
2023-01-21T13:59:27.756Z,100.00
2023-01-21T14:02:13.964Z,100.00
2023-01-21T14:04:45.386Z,100.00
2023-01-21T14:07:17.017Z,100.00
2023-01-21T14:09:55.968Z,100.00
2023-01-21T14:12:39.571Z,100.00
2023-01-21T14:15:23.191Z,100.00
2023-01-21T14:18:03.181Z,100.00
2023-01-21T14:20:33.328Z,100.00
2023-01-21T14:23:05.083Z,100.00
2023-01-21T14:25:52.178Z,100.00
2023-01-21T14:28:35.856Z,100.00
2023-01-21T14:31:17.869Z,100.00
2023-01-21T14:33:57.912Z,100.00
2023-01-21T14:36:49.499Z,100.00
2023-01-21T14:39:19.592Z,100.00
2023-01-21T14:42:10.161Z,100.00
2023-01-21T14:44:41.471Z,100.00
2023-01-21T14:47:40.011Z,100.00
2023-01-21T14:50:08.605Z,100.00
2023-01-21T14:52:43.265Z,100.00
2023-01-21T14:55:27.317Z,100.00
2023-01-21T14:57:56.696Z,100.00
2023-01-21T15:00:28.768Z,100.00
2023-01-21T15:03:16.488Z,100.00
2023-01-21T15:05:45.312Z,98.88
2023-01-21T15:08:24.929Z,97.88
2023-01-21T15:11:13.220Z,96.23
2023-01-21T15:13:41.937Z,98.84
2023-01-21T15:16:19.195Z,97.52
2023-01-21T15:19:07.973Z,94.22
2023-01-21T15:21:41.129Z,95.20
2023-01-21T15:24:33.196Z,95.23
2023-01-21T15:27:22.757Z,97.87
2023-01-21T15:30:00.573Z,95.20
2023-01-21T15:32:39.108Z,97.07
2023-01-21T15:35:25.999Z,96.81
2023-01-21T15:38:01.567Z,94.29
2023-01-21T15:40:37.140Z,91.44
2023-01-21T15:43:20.761Z,91.31
2023-01-21T15:46:09.939Z,92.51
2023-01-21T15:48:45.512Z,96.42
2023-01-21T15:51:40.566Z,96.80
2023-01-21T15:54:25.913Z,96.11
2023-01-21T15:57:09.700Z,95.92
2023-01-21T15:59:45.533Z,95.59
2023-01-21T16:02:24.772Z,97.88
2023-01-21T16:05:15.494Z,97.54
2023-01-21T16:08:00.936Z,95.65
2023-01-21T16:10:47.230Z,94.62
2023-01-21T16:13:16.826Z,94.60
2023-01-21T16:15:53.810Z,95.64
2023-01-21T16:18:33.166Z,94.41
2023-01-21T16:21:02.143Z,93.29
2023-01-21T16:23:35.220Z,93.80
2023-01-21T16:26:03.535Z,93.28
2023-01-21T16:28:46.934Z,93.84
2023-01-21T16:31:14.652Z,94.35
2023-01-21T16:33:42.952Z,94.84
2023-01-21T16:36:14.153Z,96.06
2023-01-21T16:38:43.758Z,95.87
2023-01-21T16:41:10.822Z,95.51
2023-01-21T16:43:57.912Z,95.74
2023-01-21T16:46:34.618Z,95.75
2023-01-21T16:49:04.776Z,97.11
2023-01-21T16:51:34.744Z,97.44
2023-01-21T16:54:29.537Z,97.88
2023-01-21T16:57:00.990Z,98.54
2023-01-21T16:59:29.814Z,98.56
2023-01-21T17:01:58.754Z,98.46
2023-01-21T17:04:25.941Z,98.75
2023-01-21T17:06:54.007Z,98.61
2023-01-21T17:09:33.760Z,100.00
2023-01-21T17:12:04.853Z,99.45
2023-01-21T17:14:32.925Z,99.30
2023-01-21T17:17:02.953Z,99.34
2023-01-21T17:19:35.003Z,100.00
2023-01-21T17:22:11.727Z,100.00
2023-01-21T17:24:43.929Z,100.00
2023-01-21T17:27:16.182Z,100.00
2023-01-21T17:29:45.437Z,100.00
2023-01-21T17:32:32.879Z,100.00
2023-01-21T17:35:11.595Z,100.00
2023-01-21T17:37:57.514Z,100.00
2023-01-21T17:40:27.623Z,100.00
2023-01-21T17:42:55.610Z,100.00
2023-01-21T17:45:28.261Z,100.00
2023-01-21T17:48:14.420Z,100.00
2023-01-21T17:50:46.659Z,100.00
2023-01-21T17:53:23.299Z,100.00
2023-01-21T17:56:02.688Z,100.00
2023-01-21T17:58:36.433Z,100.00
2023-01-21T18:01:04.767Z,100.00
2023-01-21T18:03:32.220Z,100.00
2023-01-21T18:05:59.719Z,100.00
2023-01-21T18:08:26.896Z,99.92
2023-01-21T18:10:57.287Z,99.62
2023-01-21T18:13:24.450Z,100.00
2023-01-21T18:15:51.955Z,100.00
2023-01-21T18:18:22.226Z,100.00
2023-01-21T18:20:49.424Z,99.41
2023-01-21T18:23:18.155Z,99.74
2023-01-21T18:25:52.236Z,98.45
2023-01-21T18:28:22.466Z,98.61
2023-01-21T18:30:51.151Z,99.48
2023-01-21T18:33:18.586Z,99.16
2023-01-21T18:35:50.791Z,98.67
2023-01-21T18:38:27.325Z,99.12
2023-01-21T18:40:58.345Z,98.14
2023-01-21T18:43:26.207Z,98.11
2023-01-21T18:45:54.414Z,97.67
2023-01-21T18:48:27.673Z,98.12
2023-01-21T18:50:55.610Z,98.08
2023-01-21T18:53:23.028Z,98.06
2023-01-21T18:55:53.630Z,97.37
2023-01-21T18:58:21.588Z,96.77
2023-01-21T19:00:49.459Z,96.92
2023-01-21T19:03:17.001Z,97.25
2023-01-21T19:05:47.649Z,96.96
2023-01-21T19:08:22.106Z,96.84
2023-01-21T19:10:49.652Z,96.93
2023-01-21T19:13:17.237Z,96.43
2023-01-21T19:15:45.363Z,96.39
2023-01-21T19:18:14.635Z,96.63
2023-01-21T19:20:42.341Z,97.80
2023-01-21T19:23:17.173Z,97.75
2023-01-21T19:25:55.115Z,97.86
2023-01-21T19:28:23.055Z,97.67
2023-01-21T19:30:55.232Z,96.92
2023-01-21T19:33:23.506Z,96.89
2023-01-21T19:35:58.325Z,97.98
2023-01-21T19:38:26.388Z,98.09
2023-01-21T19:40:55.001Z,98.20
2023-01-21T19:43:22.541Z,98.92
2023-01-21T19:45:51.512Z,99.40
2023-01-21T19:48:20.638Z,99.63
2023-01-21T19:50:48.561Z,99.75
2023-01-21T19:53:18.008Z,99.76
2023-01-21T19:55:46.620Z,99.78
2023-01-21T19:58:19.401Z,100.00
2023-01-21T20:00:49.268Z,99.24
2023-01-21T20:03:18.582Z,100.00
2023-01-21T20:05:46.909Z,100.00
2023-01-21T20:08:19.837Z,99.34
2023-01-21T20:10:47.477Z,99.98
2023-01-21T20:13:15.658Z,99.85
2023-01-21T20:15:44.277Z,99.79
2023-01-21T20:18:24.530Z,100.00
2023-01-21T20:20:52.563Z,99.91
2023-01-21T20:23:21.682Z,100.00
2023-01-21T20:25:51.680Z,99.87
2023-01-21T20:28:19.723Z,99.08
2023-01-21T20:30:48.355Z,100.00
2023-01-21T20:33:17.681Z,100.00
2023-01-21T20:35:47.949Z,99.82
2023-01-21T20:38:18.873Z,99.74
2023-01-21T20:40:46.362Z,99.67
2023-01-21T20:43:13.542Z,100.00
2023-01-21T20:45:43.488Z,100.00
2023-01-21T20:48:18.807Z,99.81
2023-01-21T20:50:47.069Z,100.00
2023-01-21T20:53:14.776Z,99.99
2023-01-21T20:55:45.249Z,99.83
2023-01-21T20:58:13.891Z,99.80
2023-01-21T21:00:41.784Z,99.67
2023-01-21T21:03:09.760Z,100.00
2023-01-21T21:05:38.475Z,100.00
2023-01-21T21:08:05.646Z,100.00
2023-01-21T21:10:36.119Z,100.00
2023-01-21T21:13:04.232Z,100.00
2023-01-21T21:15:32.745Z,100.00
2023-01-21T21:18:00.400Z,100.00
2023-01-21T21:20:31.011Z,100.00
2023-01-21T21:22:58.259Z,100.00
2023-01-21T21:25:28.167Z,100.00
2023-01-21T21:27:55.887Z,100.00
2023-01-21T21:30:30.369Z,100.00
2023-01-21T21:32:59.804Z,100.00
2023-01-21T21:35:34.293Z,100.00
2023-01-21T21:38:07.406Z,100.00
2023-01-21T21:40:37.426Z,100.00
2023-01-21T21:43:23.453Z,100.00
2023-01-21T21:46:22.887Z,100.00
2023-01-21T21:48:51.569Z,100.00
2023-01-21T21:51:19.381Z,99.79
2023-01-21T21:53:46.728Z,98.32
2023-01-21T21:56:17.455Z,97.56
2023-01-21T21:58:44.693Z,98.65
2023-01-21T22:01:29.492Z,99.23
2023-01-21T22:04:04.419Z,98.16
2023-01-21T22:06:32.499Z,97.96
2023-01-21T22:09:00.083Z,99.30
2023-01-21T22:11:28.222Z,99.70
2023-01-21T22:13:55.953Z,99.84
2023-01-21T22:16:25.549Z,99.29
2023-01-21T22:18:53.048Z,99.86
2023-01-21T22:21:22.937Z,99.30
2023-01-21T22:23:50.363Z,99.41
2023-01-21T22:26:22.018Z,99.89
2023-01-21T22:28:51.302Z,100.00
2023-01-21T22:31:23.709Z,99.32
2023-01-21T22:33:51.289Z,99.44
2023-01-21T22:36:21.139Z,100.00
2023-01-21T22:38:48.480Z,99.38
2023-01-21T22:41:17.623Z,98.53
2023-01-21T22:43:45.997Z,98.53
2023-01-21T22:46:15.027Z,99.30
2023-01-21T22:48:42.299Z,99.64
2023-01-21T22:51:13.939Z,98.77
2023-01-21T22:53:41.529Z,99.10
2023-01-21T22:56:10.104Z,98.10
2023-01-21T22:58:37.851Z,97.86
2023-01-21T23:01:05.543Z,97.48
2023-01-21T23:03:32.883Z,97.59
2023-01-21T23:06:08.370Z,97.09
2023-01-21T23:08:38.661Z,97.06
2023-01-21T23:11:07.953Z,96.50
2023-01-21T23:13:35.257Z,93.93
2023-01-21T23:16:05.401Z,94.25
2023-01-21T23:18:33.923Z,92.25
2023-01-21T23:21:07.465Z,93.47
2023-01-21T23:23:37.338Z,94.42
2023-01-21T23:26:06.579Z,95.23
2023-01-21T23:28:34.414Z,96.09
2023-01-21T23:31:09.672Z,96.90
2023-01-21T23:33:37.059Z,97.24
2023-01-21T23:36:04.778Z,96.17
2023-01-21T23:38:31.987Z,96.79
2023-01-21T23:40:59.958Z,97.11
2023-01-21T23:43:27.719Z,97.21
2023-01-21T23:45:55.342Z,97.25
2023-01-21T23:48:22.968Z,96.64
2023-01-21T23:50:50.594Z,97.04
2023-01-21T23:53:17.883Z,96.36
2023-01-21T23:55:45.031Z,96.45
2023-01-21T23:58:12.511Z,96.62
